createdAt,value
2017-09-16T00:01:59.680Z,90.80
2017-09-16T00:04:30.769Z,90.60
2017-09-16T00:07:02.402Z,91.20
2017-09-16T00:09:33.927Z,90.70
2017-09-16T00:12:05.002Z,90.40
2017-09-16T00:14:35.907Z,90.70
2017-09-16T00:17:07.216Z,91.30
2017-09-16T00:19:39.066Z,91.50
2017-09-16T00:22:09.865Z,91.50
2017-09-16T00:24:41.096Z,91.30
2017-09-16T00:27:12.910Z,91.20
2017-09-16T00:29:44.572Z,91.50
2017-09-16T00:32:16.138Z,91.90
2017-09-16T00:34:47.577Z,91.80
2017-09-16T00:37:21.668Z,91.70
2017-09-16T00:39:56.332Z,91.70
2017-09-16T00:42:28.758Z,91.40
2017-09-16T00:44:59.835Z,91.40
2017-09-16T00:47:31.302Z,91.60
2017-09-16T00:50:04.120Z,91.40
2017-09-16T00:52:35.160Z,91.60
2017-09-16T00:55:06.651Z,91.80
2017-09-16T00:57:38.476Z,91.50
2017-09-16T01:00:09.618Z,91.50
2017-09-16T01:02:40.396Z,91.60
2017-09-16T01:05:14.817Z,91.70
2017-09-16T01:07:45.958Z,91.50
2017-09-16T01:10:16.929Z,91.20
2017-09-16T01:12:48.571Z,91.00
2017-09-16T01:15:21.551Z,90.90
2017-09-16T01:17:54.130Z,90.80
2017-09-16T01:20:29.985Z,91.30
2017-09-16T01:23:01.382Z,91.10
2017-09-16T01:25:33.309Z,91.60
2017-09-16T01:28:05.186Z,92.20
2017-09-16T01:30:36.911Z,92.20
2017-09-16T01:33:09.502Z,91.90
2017-09-16T01:35:41.572Z,91.80
2017-09-16T01:38:12.622Z,92.00
2017-09-16T01:40:44.156Z,92.10
2017-09-16T01:43:16.678Z,91.80
2017-09-16T01:45:47.252Z,91.80
2017-09-16T01:48:18.561Z,91.70
2017-09-16T01:50:50.254Z,91.90
2017-09-16T01:53:20.910Z,91.90
2017-09-16T01:55:52.715Z,91.80
2017-09-16T01:58:27.476Z,91.80
2017-09-16T02:00:58.976Z,91.80
2017-09-16T02:03:30.512Z,91.60
2017-09-16T02:06:07.388Z,91.60
2017-09-16T02:08:42.204Z,91.90
2017-09-16T02:11:13.684Z,92.20
2017-09-16T02:13:44.906Z,91.90
2017-09-16T02:16:16.864Z,91.90
2017-09-16T02:18:47.907Z,91.80
2017-09-16T02:21:19.920Z,91.80
2017-09-16T02:23:51.444Z,92.10
2017-09-16T02:26:22.742Z,92.40
2017-09-16T02:28:54.910Z,92.40
2017-09-16T02:31:26.805Z,92.40
2017-09-16T02:33:58.701Z,92.40
2017-09-16T02:36:36.724Z,92.60
2017-09-16T02:39:09.550Z,92.60
2017-09-16T02:41:42.994Z,92.30
2017-09-16T02:44:14.103Z,92.20
2017-09-16T02:46:44.988Z,92.30
2017-09-16T02:49:16.355Z,92.30
2017-09-16T02:51:47.732Z,92.30
2017-09-16T02:54:18.768Z,92.30
2017-09-16T02:56:50.395Z,92.00
2017-09-16T02:59:22.165Z,92.20
2017-09-16T03:01:54.976Z,92.10
2017-09-16T03:04:26.495Z,92.10
2017-09-16T03:06:59.303Z,92.00
2017-09-16T03:09:30.354Z,92.00
2017-09-16T03:12:02.006Z,91.90
2017-09-16T03:14:33.500Z,92.00
2017-09-16T03:17:06.464Z,92.00
2017-09-16T03:19:38.231Z,92.00
2017-09-16T03:22:09.724Z,92.00
2017-09-16T03:24:43.780Z,92.10
2017-09-16T03:27:16.361Z,91.90
2017-09-16T03:29:47.456Z,91.90
2017-09-16T03:32:18.791Z,91.90
2017-09-16T03:34:53.980Z,91.90
2017-09-16T03:37:25.497Z,91.70
2017-09-16T03:39:56.525Z,91.70
2017-09-16T03:42:27.694Z,91.60
2017-09-16T03:45:00.962Z,91.70
2017-09-16T03:47:33.500Z,91.70
2017-09-16T03:50:04.263Z,91.90
2017-09-16T03:52:37.571Z,91.90
2017-09-16T03:55:10.012Z,91.90
2017-09-16T03:57:41.471Z,92.00
2017-09-16T04:00:11.986Z,92.00
2017-09-16T04:02:51.850Z,91.90
2017-09-16T04:05:23.091Z,91.80
2017-09-16T04:07:54.315Z,91.80
2017-09-16T04:10:26.688Z,91.70
2017-09-16T04:12:58.549Z,91.70
2017-09-16T04:15:30.695Z,91.60
2017-09-16T04:18:02.572Z,92.00
2017-09-16T04:20:33.724Z,91.50
2017-09-16T04:23:05.471Z,91.50
2017-09-16T04:25:37.951Z,91.50
2017-09-16T04:28:09.306Z,91.50
2017-09-16T04:30:40.073Z,91.30
2017-09-16T04:33:11.827Z,91.30
2017-09-16T04:35:42.906Z,91.30
2017-09-16T04:38:14.803Z,91.50
2017-09-16T04:40:46.982Z,91.60
2017-09-16T04:43:18.121Z,91.60
2017-09-16T04:45:49.390Z,91.50
2017-09-16T04:48:21.027Z,91.70
2017-09-16T04:50:52.060Z,91.70
2017-09-16T04:53:24.250Z,91.70
2017-09-16T04:55:58.150Z,91.80
2017-09-16T04:58:31.925Z,91.80
2017-09-16T05:01:47.027Z,91.90
2017-09-16T05:04:18.940Z,91.80
2017-09-16T05:06:53.590Z,91.70
2017-09-16T05:09:26.297Z,91.80
2017-09-16T05:11:57.177Z,91.80
2017-09-16T05:14:29.003Z,92.00
2017-09-16T05:17:10.100Z,91.70
2017-09-16T05:19:49.498Z,91.60
2017-09-16T05:22:25.538Z,91.70
2017-09-16T05:25:01.113Z,91.70
2017-09-16T05:27:42.573Z,91.80
2017-09-16T05:30:14.476Z,92.10
2017-09-16T05:32:52.809Z,91.90
2017-09-16T05:35:27.099Z,91.70
2017-09-16T05:37:58.624Z,91.70
2017-09-16T05:40:30.294Z,91.70
2017-09-16T05:43:00.836Z,91.70
2017-09-16T05:45:32.104Z,91.90
2017-09-16T05:48:03.725Z,92.10
2017-09-16T05:50:35.586Z,92.10
2017-09-16T05:53:06.732Z,92.10
2017-09-16T05:55:38.600Z,92.00
2017-09-16T05:58:09.838Z,92.10
2017-09-16T06:00:41.700Z,92.10
2017-09-16T06:03:14.135Z,92.20
2017-09-16T06:05:46.134Z,91.30
2017-09-16T06:08:17.907Z,91.30
2017-09-16T06:10:49.419Z,92.00
2017-09-16T06:13:21.677Z,91.40
2017-09-16T06:15:52.644Z,91.30
2017-09-16T06:18:24.944Z,91.40
2017-09-16T06:20:56.699Z,91.30
2017-09-16T06:23:33.898Z,91.10
2017-09-16T06:26:05.362Z,91.10
2017-09-16T06:28:39.147Z,91.20
2017-09-16T06:31:10.735Z,91.20
2017-09-16T06:33:42.324Z,91.20
2017-09-16T06:36:15.023Z,91.20
2017-09-16T06:38:46.388Z,91.10
2017-09-16T06:41:17.899Z,91.40
2017-09-16T06:43:49.970Z,91.10
2017-09-16T06:46:25.668Z,91.40
2017-09-16T06:48:56.851Z,91.40
2017-09-16T06:51:28.294Z,91.40
2017-09-16T06:53:59.925Z,91.30
2017-09-16T06:56:31.696Z,91.30
2017-09-16T06:59:06.760Z,91.10
2017-09-16T07:01:38.692Z,91.60
2017-09-16T07:04:09.272Z,91.50
2017-09-16T07:06:41.468Z,91.40
2017-09-16T07:09:12.700Z,91.40
2017-09-16T07:11:46.288Z,91.50
2017-09-16T07:14:18.249Z,91.30
2017-09-16T07:16:49.996Z,91.40
2017-09-16T07:19:21.262Z,91.40
2017-09-16T07:21:52.758Z,91.30
2017-09-16T07:24:23.804Z,91.30
2017-09-16T07:26:54.508Z,91.20
2017-09-16T07:29:28.035Z,91.10
2017-09-16T07:31:59.023Z,91.30
2017-09-16T07:34:30.504Z,91.10
2017-09-16T07:37:02.252Z,91.10
2017-09-16T07:39:34.420Z,90.90
2017-09-16T07:42:05.405Z,90.80
2017-09-16T07:44:37.632Z,90.80
2017-09-16T07:47:10.373Z,90.60
2017-09-16T07:49:41.091Z,90.90
2017-09-16T07:52:11.760Z,90.80
2017-09-16T07:54:43.425Z,90.80
2017-09-16T07:57:14.921Z,90.80
2017-09-16T07:59:46.588Z,90.90
2017-09-16T08:02:17.545Z,90.90
2017-09-16T08:04:48.839Z,90.90
2017-09-16T08:07:20.307Z,91.00
2017-09-16T08:09:51.483Z,91.00
2017-09-16T08:12:23.424Z,90.70
2017-09-16T08:14:54.853Z,90.70
2017-09-16T08:17:26.527Z,90.50
2017-09-16T08:19:59.551Z,90.50
2017-09-16T08:22:30.315Z,90.40
2017-09-16T08:25:00.854Z,90.40
2017-09-16T08:27:32.177Z,90.30
2017-09-16T08:30:03.599Z,90.10
2017-09-16T08:32:35.080Z,90.10
2017-09-16T08:35:06.718Z,90.60
2017-09-16T08:37:38.158Z,90.10
2017-09-16T08:40:09.752Z,90.10
2017-09-16T08:42:40.304Z,90.30
2017-09-16T08:45:10.892Z,90.40
2017-09-16T08:47:41.454Z,90.20
2017-09-16T08:50:12.066Z,89.70
2017-09-16T08:52:43.037Z,88.90
2017-09-16T08:55:13.609Z,88.80
2017-09-16T08:57:44.182Z,88.90
2017-09-16T09:00:14.722Z,89.00
2017-09-16T09:02:45.757Z,89.30
2017-09-16T09:05:16.640Z,88.70
2017-09-16T09:07:48.814Z,88.80
2017-09-16T09:10:20.429Z,87.70
2017-09-16T09:12:51.012Z,87.70
2017-09-16T09:15:22.124Z,87.90
2017-09-16T09:17:52.867Z,86.90
2017-09-16T09:20:23.543Z,86.80
2017-09-16T09:22:54.032Z,86.30
2017-09-16T09:25:24.840Z,86.10
2017-09-16T09:27:55.326Z,86.00
2017-09-16T09:30:26.197Z,85.10
2017-09-16T09:32:56.851Z,85.20
2017-09-16T09:35:27.334Z,85.40
2017-09-16T09:37:58.043Z,85.20
2017-09-16T09:40:28.979Z,85.50
2017-09-16T09:43:00.189Z,84.80
2017-09-16T09:45:30.766Z,84.20
2017-09-16T09:48:01.953Z,85.20
2017-09-16T09:50:32.482Z,85.20
2017-09-16T09:53:02.999Z,84.30
2017-09-16T09:55:33.536Z,84.00
2017-09-16T09:58:04.141Z,84.10
2017-09-16T10:00:35.420Z,83.60
2017-09-16T10:03:06.398Z,83.00
2017-09-16T10:05:37.321Z,83.50
2017-09-16T10:08:08.483Z,83.90
2017-09-16T10:10:39.323Z,84.10
2017-09-16T10:13:10.343Z,83.30
2017-09-16T10:15:40.991Z,83.00
2017-09-16T10:18:12.675Z,83.40
2017-09-16T10:20:43.369Z,83.10
2017-09-16T10:23:14.618Z,76.60
2017-09-16T10:25:47.670Z,76.90
2017-09-16T10:28:18.444Z,76.70
2017-09-16T10:30:49.454Z,76.60
2017-09-16T10:33:20.730Z,75.30
2017-09-16T10:35:51.141Z,73.50
2017-09-16T10:38:22.921Z,73.40
2017-09-16T10:40:55.187Z,73.00
2017-09-16T10:43:26.490Z,74.40
2017-09-16T10:45:57.123Z,74.40
2017-09-16T10:48:27.822Z,74.40
2017-09-16T10:50:58.396Z,75.20
2017-09-16T10:53:28.914Z,76.30
2017-09-16T10:55:59.659Z,74.40
2017-09-16T10:58:30.075Z,74.10
2017-09-16T11:01:00.951Z,73.80
2017-09-16T11:03:31.384Z,72.50
2017-09-16T11:06:06.473Z,73.80
2017-09-16T11:08:46.857Z,72.90
2017-09-16T11:11:26.641Z,72.80
2017-09-16T11:14:02.448Z,74.40
2017-09-16T11:16:34.286Z,74.70
2017-09-16T11:19:05.037Z,74.60
2017-09-16T11:21:35.636Z,74.20
2017-09-16T11:24:06.674Z,73.80
2017-09-16T11:26:39.166Z,70.80
2017-09-16T11:29:09.665Z,70.90
2017-09-16T11:31:40.159Z,72.00
2017-09-16T11:34:14.669Z,71.80
2017-09-16T11:36:45.258Z,71.80
2017-09-16T11:39:15.822Z,73.70
2017-09-16T11:41:46.349Z,70.70
2017-09-16T11:44:17.115Z,71.70
2017-09-16T11:46:47.861Z,73.60
2017-09-16T11:49:18.729Z,69.60
2017-09-16T11:51:49.195Z,67.30
2017-09-16T11:54:20.474Z,67.60
2017-09-16T11:56:50.936Z,66.90
2017-09-16T11:59:21.382Z,69.80
2017-09-16T12:01:52.557Z,71.20
2017-09-16T12:04:23.992Z,71.80
2017-09-16T12:06:54.666Z,71.80
2017-09-16T12:09:25.922Z,72.00
2017-09-16T12:11:56.849Z,72.60
2017-09-16T12:14:27.552Z,73.20
2017-09-16T12:16:58.651Z,72.90
2017-09-16T12:19:29.335Z,73.00
2017-09-16T12:21:59.878Z,74.50
2017-09-16T12:24:30.274Z,76.20
2017-09-16T12:27:00.851Z,78.20
2017-09-16T12:29:31.442Z,79.00
2017-09-16T12:32:02.423Z,80.00
2017-09-16T12:34:32.894Z,80.80
2017-09-16T12:37:03.451Z,80.50
2017-09-16T12:39:34.540Z,80.60
2017-09-16T12:42:04.992Z,78.70
2017-09-16T12:44:35.529Z,79.80
2017-09-16T12:47:06.620Z,80.30
2017-09-16T12:49:37.145Z,80.10
2017-09-16T12:52:07.783Z,80.90
2017-09-16T12:54:39.224Z,80.20
2017-09-16T12:57:09.718Z,80.20
2017-09-16T12:59:40.346Z,80.80
2017-09-16T13:02:13.049Z,79.00
2017-09-16T13:04:43.523Z,79.00
2017-09-16T13:07:14.181Z,79.40
2017-09-16T13:09:45.313Z,78.50
2017-09-16T13:12:16.035Z,78.50
2017-09-16T13:14:46.570Z,78.00
2017-09-16T13:17:18.453Z,77.70
2017-09-16T13:19:49.878Z,78.60
2017-09-16T13:22:21.239Z,77.80
2017-09-16T13:24:52.604Z,77.20
2017-09-16T13:27:23.880Z,77.50
2017-09-16T13:29:54.325Z,77.40
2017-09-16T13:32:25.159Z,76.20
2017-09-16T13:34:55.898Z,76.50
2017-09-16T13:37:28.690Z,76.20
2017-09-16T13:39:59.996Z,75.50
2017-09-16T13:42:30.417Z,75.60
2017-09-16T13:45:01.670Z,75.70
2017-09-16T13:47:32.362Z,75.70
2017-09-16T13:50:02.897Z,76.10
2017-09-16T13:52:36.689Z,74.30
2017-09-16T13:55:07.218Z,74.30
2017-09-16T13:57:38.222Z,74.70
2017-09-16T14:00:08.682Z,74.70
2017-09-16T14:02:40.710Z,75.60
2017-09-16T14:05:13.261Z,75.60
2017-09-16T14:07:43.939Z,75.00
2017-09-16T14:10:16.710Z,74.30
2017-09-16T14:12:48.931Z,73.60
2017-09-16T14:15:19.723Z,72.10
2017-09-16T14:17:51.110Z,72.20
2017-09-16T14:20:22.884Z,71.80
2017-09-16T14:22:54.499Z,71.70
2017-09-16T14:25:25.729Z,72.90
2017-09-16T14:27:56.205Z,71.70
2017-09-16T14:30:27.888Z,71.70
2017-09-16T14:32:58.769Z,71.60
2017-09-16T14:35:29.677Z,70.70
2017-09-16T14:38:00.361Z,70.60
2017-09-16T14:40:30.844Z,70.30
2017-09-16T14:43:01.522Z,70.20
2017-09-16T14:45:32.254Z,71.80
2017-09-16T14:48:03.570Z,71.80
2017-09-16T14:50:34.120Z,71.80
2017-09-16T14:53:04.801Z,71.60
2017-09-16T14:55:36.150Z,71.30
2017-09-16T14:58:09.120Z,71.80
2017-09-16T15:00:39.756Z,71.80
2017-09-16T15:03:10.138Z,71.80
2017-09-16T15:05:40.593Z,71.30
2017-09-16T15:08:11.046Z,71.10
2017-09-16T15:10:42.297Z,71.90
2017-09-16T15:13:12.796Z,71.80
2017-09-16T15:15:44.774Z,70.80
2017-09-16T15:18:15.826Z,70.90
2017-09-16T15:20:46.728Z,71.90
2017-09-16T15:23:18.295Z,70.40
2017-09-16T15:25:50.315Z,69.70
2017-09-16T15:28:22.220Z,70.30
2017-09-16T15:30:54.608Z,69.20
2017-09-16T15:33:27.292Z,69.40
2017-09-16T15:35:59.158Z,70.00
2017-09-16T15:38:31.027Z,69.80
2017-09-16T15:41:01.603Z,69.90
2017-09-16T15:43:32.057Z,69.90
2017-09-16T15:46:02.517Z,67.80
2017-09-16T15:48:37.712Z,67.90
2017-09-16T15:51:12.345Z,68.20
2017-09-16T15:53:43.163Z,67.70
2017-09-16T15:56:14.508Z,68.60
2017-09-16T15:58:45.321Z,68.60
2017-09-16T16:01:18.566Z,67.00
2017-09-16T16:03:49.894Z,67.80
2017-09-16T16:06:20.362Z,67.70
2017-09-16T16:08:52.458Z,67.30
2017-09-16T16:11:23.363Z,67.10
2017-09-16T16:13:53.665Z,68.30
2017-09-16T16:16:23.982Z,68.10
2017-09-16T16:19:03.437Z,67.60
2017-09-16T16:21:37.638Z,68.40
2017-09-16T16:24:08.930Z,68.90
2017-09-16T16:26:39.363Z,69.50
2017-09-16T16:29:10.291Z,68.90
2017-09-16T16:32:42.945Z,69.60
2017-09-16T16:35:13.517Z,70.10
2017-09-16T16:37:44.237Z,69.50
2017-09-16T16:40:15.349Z,69.40
2017-09-16T16:42:45.734Z,69.60
2017-09-16T16:45:16.143Z,70.90
2017-09-16T16:47:46.613Z,70.60
2017-09-16T16:50:17.212Z,71.40
2017-09-16T16:52:48.659Z,71.10
2017-09-16T16:55:19.901Z,71.60
2017-09-16T16:57:52.335Z,71.60
2017-09-16T17:00:22.881Z,72.10
2017-09-16T17:02:54.001Z,71.90
2017-09-16T17:05:24.596Z,71.80
2017-09-16T17:07:58.801Z,71.30
2017-09-16T17:10:29.980Z,71.20
2017-09-16T17:13:03.054Z,71.70
2017-09-16T17:15:33.862Z,71.80
2017-09-16T17:18:05.316Z,71.40
2017-09-16T17:20:36.875Z,72.20
2017-09-16T17:23:10.750Z,72.20
2017-09-16T17:25:41.087Z,73.10
2017-09-16T17:28:12.970Z,73.60
2017-09-16T17:30:44.209Z,74.00
2017-09-16T17:33:14.724Z,74.00
2017-09-16T17:35:45.320Z,74.50
2017-09-16T17:38:15.806Z,74.70
2017-09-16T17:40:46.840Z,75.40
2017-09-16T17:43:18.330Z,75.80
2017-09-16T17:45:48.864Z,75.80
2017-09-16T17:48:19.382Z,76.20
2017-09-16T17:50:49.666Z,76.20
2017-09-16T17:53:21.137Z,76.30
2017-09-16T17:55:52.054Z,76.30
2017-09-16T17:58:23.245Z,77.10
2017-09-16T18:00:53.684Z,77.10
2017-09-16T18:03:24.139Z,77.10
2017-09-16T18:05:55.051Z,77.10
2017-09-16T18:08:25.476Z,77.30
2017-09-16T18:10:55.966Z,77.30
2017-09-16T18:13:26.417Z,77.30
2017-09-16T18:15:56.843Z,77.20
2017-09-16T18:18:27.289Z,77.00
2017-09-16T18:20:57.971Z,77.10
2017-09-16T18:23:28.271Z,77.20
2017-09-16T18:25:58.638Z,77.20
2017-09-16T18:28:29.371Z,77.40
2017-09-16T18:30:59.954Z,77.50
2017-09-16T18:33:30.357Z,77.70
2017-09-16T18:36:00.961Z,77.60
2017-09-16T18:38:31.363Z,78.00
2017-09-16T18:41:01.757Z,78.60
2017-09-16T18:43:32.347Z,78.80
2017-09-16T18:46:02.668Z,78.90
2017-09-16T18:48:33.354Z,78.90
2017-09-16T18:51:04.213Z,78.80
2017-09-16T18:53:42.863Z,78.60
2017-09-16T18:56:13.319Z,78.80
2017-09-16T18:58:43.893Z,78.80
2017-09-16T19:01:14.528Z,78.60
2017-09-16T19:03:45.195Z,78.60
2017-09-16T19:06:15.769Z,78.80
2017-09-16T19:08:46.122Z,78.90
2017-09-16T19:11:17.260Z,79.50
2017-09-16T19:13:47.753Z,79.70
2017-09-16T19:16:18.215Z,80.30
2017-09-16T19:18:48.640Z,80.40
2017-09-16T19:21:21.166Z,80.80
2017-09-16T19:23:52.258Z,80.70
2017-09-16T19:26:22.728Z,80.90
2017-09-16T19:28:54.958Z,80.70
2017-09-16T19:31:25.801Z,80.70
2017-09-16T19:33:56.239Z,80.60
2017-09-16T19:36:26.586Z,80.50
2017-09-16T19:38:57.028Z,80.70
2017-09-16T19:41:29.235Z,80.70
2017-09-16T19:44:00.526Z,80.60
2017-09-16T19:46:31.317Z,80.50
2017-09-16T19:49:01.771Z,80.70
2017-09-16T19:51:32.530Z,80.40
2017-09-16T19:54:02.968Z,80.30
2017-09-16T19:56:34.522Z,80.20
2017-09-16T19:59:05.303Z,80.00
2017-09-16T20:01:35.730Z,80.00
2017-09-16T20:04:07.475Z,80.10
2017-09-16T20:06:38.029Z,80.30
2017-09-16T20:09:08.484Z,80.40
2017-09-16T20:11:39.246Z,80.50
2017-09-16T20:14:10.215Z,80.50
2017-09-16T20:16:40.757Z,80.40
2017-09-16T20:19:11.549Z,80.40
2017-09-16T20:21:43.082Z,80.30
2017-09-16T20:24:14.984Z,80.60
2017-09-16T20:26:45.437Z,80.40
2017-09-16T20:29:16.869Z,80.60
2017-09-16T20:31:47.499Z,80.50
2017-09-16T20:34:18.054Z,81.30
2017-09-16T20:36:48.599Z,81.20
2017-09-16T20:39:19.113Z,81.60
2017-09-16T20:41:49.580Z,81.50
2017-09-16T20:44:21.235Z,81.70
2017-09-16T20:46:52.651Z,82.50
2017-09-16T20:49:23.444Z,85.70
2017-09-16T20:51:54.226Z,86.00
2017-09-16T20:54:24.711Z,85.30
2017-09-16T20:56:55.246Z,87.60
2017-09-16T20:59:26.694Z,90.20
2017-09-16T21:01:58.181Z,89.40
2017-09-16T21:04:30.177Z,87.50
2017-09-16T21:07:01.204Z,87.40
2017-09-16T21:09:33.187Z,87.60
2017-09-16T21:12:03.699Z,87.60
2017-09-16T21:14:34.110Z,87.20
2017-09-16T21:17:06.277Z,87.30
2017-09-16T21:19:37.843Z,86.40
2017-09-16T21:22:09.442Z,85.90
2017-09-16T21:24:40.245Z,85.80
2017-09-16T21:27:10.908Z,86.80
2017-09-16T21:29:41.565Z,86.60
2017-09-16T21:32:12.354Z,87.00
2017-09-16T21:34:43.419Z,86.90
2017-09-16T21:37:14.962Z,86.60
2017-09-16T21:39:45.833Z,85.90
2017-09-16T21:42:16.898Z,87.70
2017-09-16T21:44:48.249Z,87.40
2017-09-16T21:47:20.011Z,86.50
2017-09-16T21:49:50.498Z,86.50
2017-09-16T21:52:21.036Z,86.40
2017-09-16T21:54:52.292Z,85.70
2017-09-16T21:57:24.015Z,86.40
2017-09-16T21:59:55.045Z,86.40
2017-09-16T22:02:26.287Z,86.10
2017-09-16T22:04:57.242Z,85.90
2017-09-16T22:07:27.865Z,86.70
2017-09-16T22:09:58.883Z,86.80
2017-09-16T22:12:30.094Z,86.70
2017-09-16T22:15:01.155Z,86.30
2017-09-16T22:17:31.921Z,86.20
2017-09-16T22:20:02.394Z,86.10
2017-09-16T22:22:33.346Z,85.70
2017-09-16T22:25:05.612Z,85.30
2017-09-16T22:27:37.022Z,85.20
2017-09-16T22:30:07.531Z,85.20
2017-09-16T22:32:39.185Z,84.70
2017-09-16T22:35:09.615Z,84.70
2017-09-16T22:37:40.556Z,84.50
2017-09-16T22:40:12.832Z,84.20
2017-09-16T22:42:44.330Z,84.10
2017-09-16T22:45:16.030Z,83.80
2017-09-16T22:47:46.677Z,83.80
2017-09-16T22:50:17.520Z,84.00
2017-09-16T22:52:48.300Z,84.00
2017-09-16T22:55:19.131Z,84.10
2017-09-16T22:57:50.163Z,84.40
2017-09-16T23:00:22.093Z,84.10
2017-09-16T23:02:53.937Z,84.60
2017-09-16T23:05:24.717Z,84.60
2017-09-16T23:07:55.841Z,84.20
2017-09-16T23:10:27.676Z,84.00
2017-09-16T23:12:59.094Z,84.00
2017-09-16T23:15:29.954Z,84.00
2017-09-16T23:18:00.435Z,83.70
2017-09-16T23:20:31.023Z,83.80
2017-09-16T23:23:01.727Z,83.90
2017-09-16T23:25:32.556Z,84.10
2017-09-16T23:28:02.896Z,85.10
2017-09-16T23:30:34.270Z,85.00
2017-09-16T23:33:05.245Z,85.30
2017-09-16T23:35:36.903Z,85.20
2017-09-16T23:38:07.730Z,85.10
2017-09-16T23:40:38.722Z,85.40
2017-09-16T23:43:09.420Z,85.50
2017-09-16T23:45:40.492Z,85.40
2017-09-16T23:48:11.451Z,85.10
2017-09-16T23:50:41.973Z,85.00
2017-09-16T23:53:12.693Z,84.70
2017-09-16T23:55:43.734Z,84.60
2017-09-16T23:58:14.311Z,84.40
